Alamillo, New Mexico
Current Conditions -  °F | °C
As of 5:35 AM on Friday 24 Oct 2014 (Local Time) from KONM Reporting Station
Clear Clear  
Wind Chill: 48°   Ceiling: Unl
Heat Index: 48°   Visibility: 10mi
Dew Point: 42°   Wind: 0mph
Humidity: 79%   Direction: NA
Pressure: 30.26"   Gusts: NA
Location:  34.262°N, 106.87°W
Report Text: KONM 241135Z AUTO 00000KT 10SM CLR 09/06 A3026 RMK AO2 T00890055
Loading
Personal Weather Stations






























Interactive Weather Map New forecast layout! Learn more

10-Day Weather Forecast

Advertisements
Track Severe Weather on mobile